sensor_id;sensor_type;location;lat;lon;timestamp;temperature;humidity
41985;DHT22;28319;48.116;10.818;2023-06-26T00:01:47;20.10;77.50
41985;DHT22;28319;48.116;10.818;2023-06-26T00:06:51;20.00;77.90
41985;DHT22;28319;48.116;10.818;2023-06-26T00:11:53;19.90;78.20
41985;DHT22;28319;48.116;10.818;2023-06-26T00:16:55;19.90;78.00
41985;DHT22;28319;48.116;10.818;2023-06-26T00:21:58;19.70;78.40
41985;DHT22;28319;48.116;10.818;2023-06-26T00:27:00;19.60;78.80
41985;DHT22;28319;48.116;10.818;2023-06-26T00:32:02;19.60;78.70
41985;DHT22;28319;48.116;10.818;2023-06-26T00:37:06;19.50;79.10
41985;DHT22;28319;48.116;10.818;2023-06-26T00:42:08;19.40;79.70
41985;DHT22;28319;48.116;10.818;2023-06-26T00:47:13;19.30;79.50
41985;DHT22;28319;48.116;10.818;2023-06-26T00:52:17;19.20;79.80
41985;DHT22;28319;48.116;10.818;2023-06-26T00:57:20;19.20;79.60
41985;DHT22;28319;48.116;10.818;2023-06-26T01:02:21;19.10;80.00
41985;DHT22;28319;48.116;10.818;2023-06-26T01:07:25;19.00;80.90
41985;DHT22;28319;48.116;10.818;2023-06-26T01:12:27;19.00;80.10
41985;DHT22;28319;48.116;10.818;2023-06-26T01:17:30;18.90;81.10
41985;DHT22;28319;48.116;10.818;2023-06-26T01:22:43;18.80;81.00
41985;DHT22;28319;48.116;10.818;2023-06-26T01:27:50;18.80;81.30
41985;DHT22;28319;48.116;10.818;2023-06-26T01:32:52;18.60;81.80
41985;DHT22;28319;48.116;10.818;2023-06-26T01:38:11;18.60;82.60
41985;DHT22;28319;48.116;10.818;2023-06-26T01:43:21;18.50;82.80
41985;DHT22;28319;48.116;10.818;2023-06-26T01:48:28;18.50;82.40
41985;DHT22;28319;48.116;10.818;2023-06-26T01:53:35;18.40;81.80
41985;DHT22;28319;48.116;10.818;2023-06-26T01:58:41;18.40;81.90
41985;DHT22;28319;48.116;10.818;2023-06-26T02:03:45;18.20;83.20
41985;DHT22;28319;48.116;10.818;2023-06-26T02:08:47;18.10;84.40
41985;DHT22;28319;48.116;10.818;2023-06-26T02:13:50;18.10;83.50
41985;DHT22;28319;48.116;10.818;2023-06-26T02:18:52;18.10;83.40
41985;DHT22;28319;48.116;10.818;2023-06-26T02:23:54;18.10;83.00
41985;DHT22;28319;48.116;10.818;2023-06-26T02:28:59;18.00;83.20
41985;DHT22;28319;48.116;10.818;2023-06-26T02:34:01;17.90;84.50
41985;DHT22;28319;48.116;10.818;2023-06-26T02:39:03;17.90;84.10
41985;DHT22;28319;48.116;10.818;2023-06-26T02:44:07;17.90;84.80
41985;DHT22;28319;48.116;10.818;2023-06-26T02:49:11;17.80;85.00
41985;DHT22;28319;48.116;10.818;2023-06-26T02:54:13;17.70;85.30
41985;DHT22;28319;48.116;10.818;2023-06-26T02:59:16;17.70;85.20
41985;DHT22;28319;48.116;10.818;2023-06-26T03:04:18;17.60;85.80
41985;DHT22;28319;48.116;10.818;2023-06-26T03:09:22;17.40;86.30
41985;DHT22;28319;48.116;10.818;2023-06-26T03:14:25;17.40;86.30
41985;DHT22;28319;48.116;10.818;2023-06-26T03:19:29;17.30;87.50
41985;DHT22;28319;48.116;10.818;2023-06-26T03:24:31;17.20;86.90
41985;DHT22;28319;48.116;10.818;2023-06-26T03:29:35;17.20;88.20
41985;DHT22;28319;48.116;10.818;2023-06-26T03:34:38;17.10;88.30
41985;DHT22;28319;48.116;10.818;2023-06-26T03:39:40;17.10;87.30
41985;DHT22;28319;48.116;10.818;2023-06-26T03:44:43;17.10;88.20
41985;DHT22;28319;48.116;10.818;2023-06-26T03:49:45;17.30;87.00
41985;DHT22;28319;48.116;10.818;2023-06-26T03:54:47;17.20;89.40
41985;DHT22;28319;48.116;10.818;2023-06-26T03:59:51;17.20;89.30
41985;DHT22;28319;48.116;10.818;2023-06-26T04:04:53;17.20;88.40
41985;DHT22;28319;48.116;10.818;2023-06-26T04:09:56;17.20;88.10
41985;DHT22;28319;48.116;10.818;2023-06-26T04:15:00;17.10;89.20
41985;DHT22;28319;48.116;10.818;2023-06-26T04:20:02;17.20;88.50
41985;DHT22;28319;48.116;10.818;2023-06-26T04:25:07;17.30;89.10
41985;DHT22;28319;48.116;10.818;2023-06-26T04:30:11;17.40;88.90
41985;DHT22;28319;48.116;10.818;2023-06-26T04:35:14;17.50;86.70
41985;DHT22;28319;48.116;10.818;2023-06-26T04:40:15;17.60;88.90
41985;DHT22;28319;48.116;10.818;2023-06-26T04:45:19;17.70;89.80
41985;DHT22;28319;48.116;10.818;2023-06-26T04:50:21;17.70;87.80
41985;DHT22;28319;48.116;10.818;2023-06-26T04:55:24;17.90;89.10
41985;DHT22;28319;48.116;10.818;2023-06-26T05:00:29;17.90;89.40
41985;DHT22;28319;48.116;10.818;2023-06-26T05:05:32;18.00;90.20
41985;DHT22;28319;48.116;10.818;2023-06-26T05:10:34;18.10;89.10
41985;DHT22;28319;48.116;10.818;2023-06-26T05:15:37;18.20;88.70
41985;DHT22;28319;48.116;10.818;2023-06-26T05:20:40;18.30;90.10
41985;DHT22;28319;48.116;10.818;2023-06-26T05:25:42;18.40;89.70
41985;DHT22;28319;48.116;10.818;2023-06-26T05:30:46;18.50;90.10
41985;DHT22;28319;48.116;10.818;2023-06-26T05:35:50;18.60;90.70
41985;DHT22;28319;48.116;10.818;2023-06-26T05:40:53;18.80;91.10
41985;DHT22;28319;48.116;10.818;2023-06-26T05:45:56;18.80;91.30
41985;DHT22;28319;48.116;10.818;2023-06-26T05:51:00;19.10;90.00
41985;DHT22;28319;48.116;10.818;2023-06-26T05:56:02;19.20;91.10
41985;DHT22;28319;48.116;10.818;2023-06-26T06:01:06;19.30;90.80
41985;DHT22;28319;48.116;10.818;2023-06-26T06:06:08;19.50;91.30
41985;DHT22;28319;48.116;10.818;2023-06-26T06:11:11;19.70;91.50
41985;DHT22;28319;48.116;10.818;2023-06-26T06:16:14;19.90;91.90
41985;DHT22;28319;48.116;10.818;2023-06-26T06:21:16;20.10;92.20
41985;DHT22;28319;48.116;10.818;2023-06-26T06:26:18;20.40;91.80
41985;DHT22;28319;48.116;10.818;2023-06-26T06:31:22;20.70;91.90
41985;DHT22;28319;48.116;10.818;2023-06-26T06:36:24;20.80;91.50
41985;DHT22;28319;48.116;10.818;2023-06-26T06:41:26;21.10;90.90
41985;DHT22;28319;48.116;10.818;2023-06-26T06:46:29;21.30;91.30
41985;DHT22;28319;48.116;10.818;2023-06-26T06:51:31;21.60;91.40
41985;DHT22;28319;48.116;10.818;2023-06-26T06:56:33;21.90;90.70
41985;DHT22;28319;48.116;10.818;2023-06-26T07:01:36;22.20;90.10
41985;DHT22;28319;48.116;10.818;2023-06-26T07:06:38;22.40;89.50
41985;DHT22;28319;48.116;10.818;2023-06-26T07:11:40;22.80;88.40
41985;DHT22;28319;48.116;10.818;2023-06-26T07:16:44;23.00;87.70
41985;DHT22;28319;48.116;10.818;2023-06-26T07:21:46;23.20;85.40
41985;DHT22;28319;48.116;10.818;2023-06-26T07:26:48;23.40;84.10
41985;DHT22;28319;48.116;10.818;2023-06-26T07:31:51;23.50;83.60
41985;DHT22;28319;48.116;10.818;2023-06-26T07:36:53;23.70;83.30
41985;DHT22;28319;48.116;10.818;2023-06-26T07:41:56;23.90;83.80
41985;DHT22;28319;48.116;10.818;2023-06-26T07:47:00;24.00;82.50
41985;DHT22;28319;48.116;10.818;2023-06-26T07:52:02;24.20;81.40
41985;DHT22;28319;48.116;10.818;2023-06-26T07:57:05;24.30;81.50
41985;DHT22;28319;48.116;10.818;2023-06-26T08:02:10;24.50;79.20
41985;DHT22;28319;48.116;10.818;2023-06-26T08:07:12;24.50;79.20
41985;DHT22;28319;48.116;10.818;2023-06-26T08:12:15;24.80;79.30
41985;DHT22;28319;48.116;10.818;2023-06-26T08:17:18;24.90;78.60
41985;DHT22;28319;48.116;10.818;2023-06-26T08:22:20;25.00;78.20
41985;DHT22;28319;48.116;10.818;2023-06-26T08:27:22;25.10;78.70
41985;DHT22;28319;48.116;10.818;2023-06-26T08:32:26;25.30;77.30
41985;DHT22;28319;48.116;10.818;2023-06-26T08:37:28;25.40;77.40
41985;DHT22;28319;48.116;10.818;2023-06-26T08:42:33;25.50;78.10
41985;DHT22;28319;48.116;10.818;2023-06-26T08:47:37;25.60;75.30
41985;DHT22;28319;48.116;10.818;2023-06-26T08:52:43;25.80;75.30
41985;DHT22;28319;48.116;10.818;2023-06-26T08:57:47;26.00;76.30
41985;DHT22;28319;48.116;10.818;2023-06-26T09:02:51;26.00;76.40
41985;DHT22;28319;48.116;10.818;2023-06-26T09:07:53;26.20;75.10
41985;DHT22;28319;48.116;10.818;2023-06-26T09:12:56;26.50;74.30
41985;DHT22;28319;48.116;10.818;2023-06-26T09:17:59;26.60;74.30
41985;DHT22;28319;48.116;10.818;2023-06-26T09:23:04;26.80;71.90
41985;DHT22;28319;48.116;10.818;2023-06-26T09:28:06;27.00;70.20
41985;DHT22;28319;48.116;10.818;2023-06-26T09:33:15;27.10;71.10
41985;DHT22;28319;48.116;10.818;2023-06-26T09:38:17;27.30;72.30
41985;DHT22;28319;48.116;10.818;2023-06-26T09:43:19;27.50;72.10
41985;DHT22;28319;48.116;10.818;2023-06-26T09:48:23;27.80;70.30
41985;DHT22;28319;48.116;10.818;2023-06-26T09:53:25;27.90;68.90
41985;DHT22;28319;48.116;10.818;2023-06-26T09:58:28;28.30;71.00
41985;DHT22;28319;48.116;10.818;2023-06-26T10:03:31;28.50;69.80
41985;DHT22;28319;48.116;10.818;2023-06-26T10:08:34;28.20;70.60
41985;DHT22;28319;48.116;10.818;2023-06-26T10:13:39;28.40;70.10
41985;DHT22;28319;48.116;10.818;2023-06-26T10:18:45;28.40;71.20
41985;DHT22;28319;48.116;10.818;2023-06-26T10:23:48;28.60;69.80
41985;DHT22;28319;48.116;10.818;2023-06-26T10:28:52;28.50;69.10
41985;DHT22;28319;48.116;10.818;2023-06-26T10:33:57;28.80;69.50
41985;DHT22;28319;48.116;10.818;2023-06-26T10:39:04;29.00;69.00
41985;DHT22;28319;48.116;10.818;2023-06-26T10:44:08;29.00;68.10
41985;DHT22;28319;48.116;10.818;2023-06-26T10:49:13;29.30;67.70
41985;DHT22;28319;48.116;10.818;2023-06-26T10:54:15;29.70;68.00
41985;DHT22;28319;48.116;10.818;2023-06-26T10:59:19;29.20;68.10
41985;DHT22;28319;48.116;10.818;2023-06-26T11:04:39;29.60;67.40
41985;DHT22;28319;48.116;10.818;2023-06-26T11:09:54;29.70;68.30
41985;DHT22;28319;48.116;10.818;2023-06-26T11:14:56;30.10;67.10
41985;DHT22;28319;48.116;10.818;2023-06-26T11:20:00;30.30;67.00
41985;DHT22;28319;48.116;10.818;2023-06-26T11:25:03;30.20;66.60
41985;DHT22;28319;48.116;10.818;2023-06-26T11:30:07;30.40;67.00
41985;DHT22;28319;48.116;10.818;2023-06-26T11:35:11;30.10;65.60
41985;DHT22;28319;48.116;10.818;2023-06-26T11:40:20;30.80;65.60
41985;DHT22;28319;48.116;10.818;2023-06-26T11:45:22;30.60;67.30
41985;DHT22;28319;48.116;10.818;2023-06-26T11:50:27;30.30;65.30
41985;DHT22;28319;48.116;10.818;2023-06-26T11:55:40;30.70;66.90
41985;DHT22;28319;48.116;10.818;2023-06-26T12:00:43;30.70;65.70
41985;DHT22;28319;48.116;10.818;2023-06-26T12:05:46;30.00;65.60
41985;DHT22;28319;48.116;10.818;2023-06-26T12:10:48;30.30;65.80
41985;DHT22;28319;48.116;10.818;2023-06-26T12:15:51;30.20;65.10
41985;DHT22;28319;48.116;10.818;2023-06-26T12:20:54;30.90;65.50
41985;DHT22;28319;48.116;10.818;2023-06-26T12:25:56;31.50;63.70
41985;DHT22;28319;48.116;10.818;2023-06-26T12:31:22;31.20;62.70
41985;DHT22;28319;48.116;10.818;2023-06-26T12:36:26;31.10;64.20
41985;DHT22;28319;48.116;10.818;2023-06-26T12:41:28;31.20;64.10
41985;DHT22;28319;48.116;10.818;2023-06-26T12:46:33;30.30;65.20
41985;DHT22;28319;48.116;10.818;2023-06-26T12:51:38;29.80;64.50
41985;DHT22;28319;48.116;10.818;2023-06-26T12:56:40;29.80;64.70
41985;DHT22;28319;48.116;10.818;2023-06-26T13:01:42;30.90;65.50
41985;DHT22;28319;48.116;10.818;2023-06-26T13:06:46;30.60;62.70
41985;DHT22;28319;48.116;10.818;2023-06-26T13:11:48;30.60;62.10
41985;DHT22;28319;48.116;10.818;2023-06-26T13:16:50;30.20;65.40
41985;DHT22;28319;48.116;10.818;2023-06-26T13:21:54;30.20;64.90
41985;DHT22;28319;48.116;10.818;2023-06-26T13:26:57;30.50;65.60
41985;DHT22;28319;48.116;10.818;2023-06-26T13:31:59;31.00;63.20
41985;DHT22;28319;48.116;10.818;2023-06-26T13:37:03;30.70;63.40
41985;DHT22;28319;48.116;10.818;2023-06-26T13:42:07;31.30;63.40
41985;DHT22;28319;48.116;10.818;2023-06-26T13:47:12;31.50;63.30
41985;DHT22;28319;48.116;10.818;2023-06-26T13:52:16;31.80;63.10
41985;DHT22;28319;48.116;10.818;2023-06-26T13:57:18;31.70;62.60
41985;DHT22;28319;48.116;10.818;2023-06-26T14:02:22;31.40;62.40
41985;DHT22;28319;48.116;10.818;2023-06-26T14:07:26;31.20;62.10
41985;DHT22;28319;48.116;10.818;2023-06-26T14:12:27;31.50;62.30
41985;DHT22;28319;48.116;10.818;2023-06-26T14:17:29;32.00;61.80
41985;DHT22;28319;48.116;10.818;2023-06-26T14:22:33;31.80;61.70
41985;DHT22;28319;48.116;10.818;2023-06-26T14:27:35;31.30;62.20
41985;DHT22;28319;48.116;10.818;2023-06-26T14:32:37;30.80;63.60
41985;DHT22;28319;48.116;10.818;2023-06-26T14:37:41;30.70;64.80
41985;DHT22;28319;48.116;10.818;2023-06-26T14:42:44;30.30;64.30
41985;DHT22;28319;48.116;10.818;2023-06-26T14:47:46;30.00;64.60
41985;DHT22;28319;48.116;10.818;2023-06-26T14:52:50;29.50;67.80
41985;DHT22;28319;48.116;10.818;2023-06-26T14:57:52;28.70;73.80
41985;DHT22;28319;48.116;10.818;2023-06-26T15:02:54;28.10;78.80
41985;DHT22;28319;48.116;10.818;2023-06-26T15:08:00;27.40;82.80
41985;DHT22;28319;48.116;10.818;2023-06-26T15:13:02;27.60;79.80
41985;DHT22;28319;48.116;10.818;2023-06-26T15:18:04;27.80;78.10
41985;DHT22;28319;48.116;10.818;2023-06-26T15:23:08;28.00;78.60
41985;DHT22;28319;48.116;10.818;2023-06-26T15:28:10;28.20;77.00
41985;DHT22;28319;48.116;10.818;2023-06-26T15:33:12;28.30;76.50
41985;DHT22;28319;48.116;10.818;2023-06-26T15:38:16;28.60;76.40
41985;DHT22;28319;48.116;10.818;2023-06-26T15:43:17;28.90;75.60
41985;DHT22;28319;48.116;10.818;2023-06-26T15:48:20;28.90;74.20
41985;DHT22;28319;48.116;10.818;2023-06-26T15:53:34;28.70;73.70
41985;DHT22;28319;48.116;10.818;2023-06-26T15:58:38;28.70;72.70
41985;DHT22;28319;48.116;10.818;2023-06-26T16:03:42;28.90;72.50
41985;DHT22;28319;48.116;10.818;2023-06-26T16:08:46;29.00;72.40
41985;DHT22;28319;48.116;10.818;2023-06-26T16:13:49;29.10;72.50
41985;DHT22;28319;48.116;10.818;2023-06-26T16:18:52;29.10;71.20
41985;DHT22;28319;48.116;10.818;2023-06-26T16:23:56;29.10;71.50
41985;DHT22;28319;48.116;10.818;2023-06-26T16:28:58;28.90;71.40
41985;DHT22;28319;48.116;10.818;2023-06-26T16:34:00;28.70;71.70
41985;DHT22;28319;48.116;10.818;2023-06-26T16:39:03;28.50;72.80
41985;DHT22;28319;48.116;10.818;2023-06-26T16:44:05;28.30;72.60
41985;DHT22;28319;48.116;10.818;2023-06-26T16:49:07;28.30;73.30
41985;DHT22;28319;48.116;10.818;2023-06-26T16:54:10;28.00;73.80
41985;DHT22;28319;48.116;10.818;2023-06-26T16:59:12;28.00;74.60
41985;DHT22;28319;48.116;10.818;2023-06-26T17:04:14;28.00;75.60
41985;DHT22;28319;48.116;10.818;2023-06-26T17:09:18;27.80;76.60
41985;DHT22;28319;48.116;10.818;2023-06-26T17:14:20;27.80;77.30
41985;DHT22;28319;48.116;10.818;2023-06-26T17:19:22;27.20;81.80
41985;DHT22;28319;48.116;10.818;2023-06-26T17:24:25;26.60;84.80
41985;DHT22;28319;48.116;10.818;2023-06-26T17:29:28;25.70;88.20
41985;DHT22;28319;48.116;10.818;2023-06-26T17:34:30;25.40;90.00
41985;DHT22;28319;48.116;10.818;2023-06-26T17:39:33;25.20;90.20
41985;DHT22;28319;48.116;10.818;2023-06-26T17:44:35;24.90;90.80
41985;DHT22;28319;48.116;10.818;2023-06-26T17:49:37;24.90;91.00
41985;DHT22;28319;48.116;10.818;2023-06-26T17:54:41;24.50;94.40
41985;DHT22;28319;48.116;10.818;2023-06-26T17:59:43;22.20;97.20
41985;DHT22;28319;48.116;10.818;2023-06-26T18:04:45;21.50;99.50
41985;DHT22;28319;48.116;10.818;2023-06-26T18:09:48;21.60;99.90
41985;DHT22;28319;48.116;10.818;2023-06-26T18:14:50;22.10;99.50
41985;DHT22;28319;48.116;10.818;2023-06-26T18:19:52;22.80;99.90
41985;DHT22;28319;48.116;10.818;2023-06-26T18:24:56;22.80;99.70
41985;DHT22;28319;48.116;10.818;2023-06-26T18:29:58;23.20;99.30
41985;DHT22;28319;48.116;10.818;2023-06-26T18:34:59;23.70;97.50
41985;DHT22;28319;48.116;10.818;2023-06-26T18:40:06;24.00;97.10
41985;DHT22;28319;48.116;10.818;2023-06-26T18:45:14;24.20;98.00
41985;DHT22;28319;48.116;10.818;2023-06-26T18:50:16;24.20;98.70
41985;DHT22;28319;48.116;10.818;2023-06-26T18:55:21;24.30;98.70
41985;DHT22;28319;48.116;10.818;2023-06-26T19:00:23;24.00;98.90
41985;DHT22;28319;48.116;10.818;2023-06-26T19:05:25;23.60;99.50
41985;DHT22;28319;48.116;10.818;2023-06-26T19:10:28;23.50;99.50
41985;DHT22;28319;48.116;10.818;2023-06-26T19:15:30;23.30;99.90
41985;DHT22;28319;48.116;10.818;2023-06-26T19:20:32;23.50;99.20
41985;DHT22;28319;48.116;10.818;2023-06-26T19:25:35;23.20;99.90
41985;DHT22;28319;48.116;10.818;2023-06-26T19:30:38;22.70;99.90
41985;DHT22;28319;48.116;10.818;2023-06-26T19:35:40;22.40;99.90
41985;DHT22;28319;48.116;10.818;2023-06-26T19:40:44;22.20;99.50
41985;DHT22;28319;48.116;10.818;2023-06-26T19:45:46;22.30;99.40
41985;DHT22;28319;48.116;10.818;2023-06-26T19:50:48;22.10;98.80
41985;DHT22;28319;48.116;10.818;2023-06-26T19:55:52;22.10;98.50
41985;DHT22;28319;48.116;10.818;2023-06-26T20:00:54;22.10;98.70
41985;DHT22;28319;48.116;10.818;2023-06-26T20:05:56;22.30;98.80
41985;DHT22;28319;48.116;10.818;2023-06-26T20:10:59;22.40;99.00
41985;DHT22;28319;48.116;10.818;2023-06-26T20:16:01;22.40;98.40
41985;DHT22;28319;48.116;10.818;2023-06-26T20:21:03;22.50;97.40
41985;DHT22;28319;48.116;10.818;2023-06-26T20:26:07;22.20;97.80
41985;DHT22;28319;48.116;10.818;2023-06-26T20:31:09;22.20;97.70
41985;DHT22;28319;48.116;10.818;2023-06-26T20:36:11;22.10;97.20
41985;DHT22;28319;48.116;10.818;2023-06-26T20:41:15;21.90;95.60
41985;DHT22;28319;48.116;10.818;2023-06-26T20:46:18;21.60;95.70
41985;DHT22;28319;48.116;10.818;2023-06-26T20:51:21;21.40;93.30
41985;DHT22;28319;48.116;10.818;2023-06-26T20:56:26;21.30;93.00
41985;DHT22;28319;48.116;10.818;2023-06-26T21:01:28;21.10;91.50
41985;DHT22;28319;48.116;10.818;2023-06-26T21:06:30;21.00;92.60
41985;DHT22;28319;48.116;10.818;2023-06-26T21:11:34;21.00;93.70
41985;DHT22;28319;48.116;10.818;2023-06-26T21:16:36;21.00;92.50
41985;DHT22;28319;48.116;10.818;2023-06-26T21:21:38;21.10;93.20
41985;DHT22;28319;48.116;10.818;2023-06-26T21:26:41;21.10;94.30
41985;DHT22;28319;48.116;10.818;2023-06-26T21:31:43;21.00;92.10
41985;DHT22;28319;48.116;10.818;2023-06-26T21:36:47;20.80;91.50
41985;DHT22;28319;48.116;10.818;2023-06-26T21:41:51;20.70;91.80
41985;DHT22;28319;48.116;10.818;2023-06-26T21:46:53;20.70;89.00
41985;DHT22;28319;48.116;10.818;2023-06-26T21:51:56;20.70;91.50
41985;DHT22;28319;48.116;10.818;2023-06-26T21:56:59;20.70;90.10
41985;DHT22;28319;48.116;10.818;2023-06-26T22:02:02;20.50;90.00
41985;DHT22;28319;48.116;10.818;2023-06-26T22:07:04;20.40;90.40
41985;DHT22;28319;48.116;10.818;2023-06-26T22:12:08;20.50;91.00
41985;DHT22;28319;48.116;10.818;2023-06-26T22:17:11;20.40;90.60
41985;DHT22;28319;48.116;10.818;2023-06-26T22:22:12;20.60;91.10
41985;DHT22;28319;48.116;10.818;2023-06-26T22:27:16;20.40;91.30
41985;DHT22;28319;48.116;10.818;2023-06-26T22:32:18;20.40;91.10
41985;DHT22;28319;48.116;10.818;2023-06-26T22:37:20;20.30;90.00
41985;DHT22;28319;48.116;10.818;2023-06-26T22:42:23;20.40;91.80
41985;DHT22;28319;48.116;10.818;2023-06-26T22:47:25;20.60;91.20
41985;DHT22;28319;48.116;10.818;2023-06-26T22:52:28;20.40;90.70
41985;DHT22;28319;48.116;10.818;2023-06-26T22:57:32;20.40;90.50
41985;DHT22;28319;48.116;10.818;2023-06-26T23:02:34;20.40;90.70
41985;DHT22;28319;48.116;10.818;2023-06-26T23:07:37;20.20;90.20
41985;DHT22;28319;48.116;10.818;2023-06-26T23:12:40;20.20;90.00
41985;DHT22;28319;48.116;10.818;2023-06-26T23:17:42;19.90;89.80
41985;DHT22;28319;48.116;10.818;2023-06-26T23:22:45;19.90;90.10
41985;DHT22;28319;48.116;10.818;2023-06-26T23:27:48;19.90;90.10
41985;DHT22;28319;48.116;10.818;2023-06-26T23:32:50;19.90;89.70
41985;DHT22;28319;48.116;10.818;2023-06-26T23:37:52;19.80;90.30
41985;DHT22;28319;48.116;10.818;2023-06-26T23:42:57;19.60;89.40
41985;DHT22;28319;48.116;10.818;2023-06-26T23:48:04;19.50;89.10
41985;DHT22;28319;48.116;10.818;2023-06-26T23:53:06;19.40;89.00
41985;DHT22;28319;48.116;10.818;2023-06-26T23:58:09;19.50;90.40
